Time;durP1;ratioP1;P1;durP2;ratioP2;P2;SDS_P1;SDS_P2;PMS_P1;PMS_P2;Temp;Humidity;BMP_temperature;BMP_pressure;BME280_temperature;BME280_humidity;BME280_pressure;Samples;Min_cycle;Max_cycle;Signal;HPM_P1;HPM_P2
2023/09/03 00:02:18;;;;;;;;;3.00;2.00;;;;;22.52;100.00;102097.78;5119014;27;47432;-78
2023/09/03 00:04:44;;;;;;;;;2.00;2.00;;;;;22.43;100.00;102087.72;5115157;27;45435;-78
2023/09/03 00:07:09;;;;;;;;;1.33;1.33;;;;;22.51;100.00;102109.56;5112011;27;45330;-78
2023/09/03 00:09:35;;;;;;;;;2.00;2.00;;;;;22.43;100.00;102093.97;5113803;27;45491;-78
2023/09/03 00:12:01;;;;;;;;;1.00;0.33;;;;;22.38;100.00;102098.00;5108894;27;46274;-78
2023/09/03 00:14:27;;;;;;;;;2.00;1.00;;;;;22.42;100.00;102103.03;5111141;27;45240;-79
2023/09/03 00:16:52;;;;;;;;;1.67;1.67;;;;;22.35;100.00;102098.25;5128599;27;45510;-78
2023/09/03 00:19:18;;;;;;;;;1.00;1.00;;;;;22.38;100.00;102104.25;5111187;27;55112;-78
2023/09/03 00:21:43;;;;;;;;;2.00;1.00;;;;;22.35;100.00;102103.63;5110486;27;46280;-78
2023/09/03 00:24:08;;;;;;;;;1.00;1.00;;;;;22.28;100.00;102098.69;5116106;27;45319;-78
2023/09/03 00:26:34;;;;;;;;;2.00;1.00;;;;;22.29;100.00;102107.63;5109267;27;45735;-78
2023/09/03 00:28:59;;;;;;;;;1.00;1.00;;;;;22.20;100.00;102103.81;5107282;27;45473;-78
2023/09/03 00:31:26;;;;;;;;;1.00;1.00;;;;;22.23;100.00;102110.78;5114317;27;45538;-78
2023/09/03 00:33:52;;;;;;;;;1.67;1.67;;;;;22.26;100.00;102115.94;5109416;27;45491;-78
2023/09/03 00:36:17;;;;;;;;;2.00;2.00;;;;;22.24;100.00;102134.94;5104068;27;45363;-78
2023/09/03 00:38:42;;;;;;;;;1.33;1.33;;;;;22.21;100.00;102128.94;5107704;27;50192;-78
2023/09/03 00:41:08;;;;;;;;;2.00;2.00;;;;;22.17;100.00;102135.50;5108022;27;45375;-77
2023/09/03 00:43:33;;;;;;;;;1.67;1.67;;;;;22.04;100.00;102124.78;5107138;27;46382;-78
2023/09/03 00:46:02;;;;;;;;;3.00;1.67;;;;;22.11;100.00;102128.75;5114979;27;46455;-78
2023/09/03 00:48:29;;;;;;;;;2.00;2.00;;;;;21.95;100.00;102106.63;5112763;27;45408;-78
2023/09/03 00:50:58;;;;;;;;;1.67;1.67;;;;;22.05;100.00;102131.03;5112012;27;45434;-78
2023/09/03 00:53:25;;;;;;;;;2.33;1.67;;;;;21.93;100.00;102119.31;5118821;27;45323;-78
2023/09/03 00:55:52;;;;;;;;;3.67;2.00;;;;;21.93;100.00;102127.41;5108580;27;45435;-78
2023/09/03 00:58:18;;;;;;;;;2.00;2.00;;;;;21.94;100.00;102131.84;5105442;27;45550;-78
2023/09/03 01:00:44;;;;;;;;;2.00;2.00;;;;;21.76;100.00;102114.28;5108753;27;47326;-78
2023/09/03 01:03:09;;;;;;;;;1.00;1.00;;;;;21.67;100.00;102109.56;5116494;27;45492;-78
2023/09/03 01:05:34;;;;;;;;;3.00;1.67;;;;;21.74;100.00;102130.56;5121820;27;45392;-78
2023/09/03 01:08:02;;;;;;;;;1.00;1.00;;;;;21.72;100.00;102135.22;5121835;27;45324;-78
2023/09/03 01:10:37;;;;;;;;;2.00;2.00;;;;;21.57;100.00;102119.28;5104451;27;45370;-78
2023/09/03 01:13:13;;;;;;;;;2.00;2.00;;;;;21.65;100.00;102133.06;5116305;27;45377;-78
2023/09/03 01:15:43;;;;;;;;;2.00;2.00;;;;;21.65;100.00;102127.69;5112859;27;45438;-78
2023/09/03 01:18:12;;;;;;;;;3.00;1.67;;;;;21.58;100.00;102111.13;5118604;27;45213;-78
2023/09/03 01:20:44;;;;;;;;;1.33;1.00;;;;;21.59;100.00;102111.97;5103226;27;45492;-79
2023/09/03 01:23:32;;;;;;;;;4.00;3.00;;;;;21.57;100.00;102105.81;5115780;27;45283;-78
2023/09/03 01:26:13;;;;;;;;;3.00;3.00;;;;;21.52;100.00;102097.22;5118948;27;45370;-78
2023/09/03 01:28:40;;;;;;;;;2.00;2.00;;;;;21.42;100.00;102093.47;5107098;27;45675;-78
2023/09/03 01:31:11;;;;;;;;;2.00;2.00;;;;;21.39;100.00;102093.69;5122724;27;47800;-78
2023/09/03 01:33:45;;;;;;;;;3.00;3.00;;;;;21.34;100.00;102087.78;5113678;27;45416;-78
2023/09/03 01:36:12;;;;;;;;;2.00;2.00;;;;;21.33;100.00;102086.06;5107318;27;45464;-78
2023/09/03 01:38:39;;;;;;;;;5.67;3.00;;;;;21.24;100.00;102076.81;5104961;27;45491;-77
2023/09/03 01:41:06;;;;;;;;;1.33;1.33;;;;;21.12;100.00;102066.94;5103766;27;45349;-78
2023/09/03 01:43:32;;;;;;;;;3.00;1.67;;;;;21.21;100.00;102090.50;5110183;27;45535;-78
2023/09/03 01:46:10;;;;;;;;;3.33;3.33;;;;;21.11;100.00;102084.91;5107780;27;45438;-77
2023/09/03 01:48:42;;;;;;;;;3.00;3.00;;;;;21.15;100.00;102083.72;5106499;27;45546;-77
2023/09/03 01:51:25;;;;;;;;;3.00;2.00;;;;;21.02;100.00;102074.75;5112965;27;45686;-78
2023/09/03 01:54:01;;;;;;;;;2.00;2.00;;;;;21.03;100.00;102083.69;5106948;27;45481;-77
2023/09/03 01:56:29;;;;;;;;;4.00;2.00;;;;;21.03;100.00;102095.31;5110586;27;45427;-79
2023/09/03 01:58:59;;;;;;;;;4.00;3.00;;;;;20.98;100.00;102077.78;5113209;27;45345;-78
2023/09/03 02:01:30;;;;;;;;;3.00;2.67;;;;;20.97;100.00;102079.63;5112399;27;46998;-78
2023/09/03 02:03:56;;;;;;;;;3.00;3.00;;;;;20.96;100.00;102074.34;5115393;27;45430;-77
2023/09/03 02:06:21;;;;;;;;;2.00;2.00;;;;;20.79;100.00;102067.44;5112405;27;45453;-78
2023/09/03 02:08:47;;;;;;;;;2.00;2.00;;;;;20.81;100.00;102078.94;5107393;27;45332;-77
2023/09/03 02:11:12;;;;;;;;;2.67;2.00;;;;;20.84;100.00;102089.53;5112761;27;46935;-78
2023/09/03 02:13:37;;;;;;;;;4.67;2.00;;;;;20.82;100.00;102095.94;5115618;27;45433;-78
2023/09/03 02:16:03;;;;;;;;;2.33;2.33;;;;;20.79;100.00;102108.66;5105062;27;45402;-78
2023/09/03 02:18:28;;;;;;;;;4.00;3.00;;;;;20.75;100.00;102103.56;5105009;27;45307;-77
2023/09/03 02:20:53;;;;;;;;;3.00;3.00;;;;;20.77;100.00;102101.66;5105942;27;45286;-77
2023/09/03 02:23:19;;;;;;;;;3.67;3.67;;;;;20.77;100.00;102109.72;5101909;27;45436;-78
2023/09/03 02:25:45;;;;;;;;;3.67;3.00;;;;;20.79;100.00;102111.34;5110187;27;45274;-78
2023/09/03 02:28:10;;;;;;;;;2.00;2.00;;;;;20.78;100.00;102108.75;5114763;27;45524;-78
2023/09/03 02:30:35;;;;;;;;;3.00;2.00;;;;;20.76;100.00;102100.81;5114091;27;45368;-78
2023/09/03 02:33:01;;;;;;;;;3.00;3.00;;;;;20.78;100.00;102104.22;5104454;27;45627;-78
2023/09/03 02:35:26;;;;;;;;;2.00;2.00;;;;;20.79;100.00;102088.97;5107321;27;45286;-78
2023/09/03 02:37:51;;;;;;;;;2.33;1.67;;;;;20.74;100.00;102078.50;5118224;27;45596;-77
2023/09/03 02:40:17;;;;;;;;;3.00;3.00;;;;;20.82;100.00;102102.19;5116837;27;46730;-78
2023/09/03 02:42:42;;;;;;;;;2.00;2.00;;;;;20.79;100.00;102092.50;5102460;27;45354;-78
2023/09/03 02:45:07;;;;;;;;;2.33;2.33;;;;;20.81;100.00;102108.53;5114582;27;45494;-78
2023/09/03 02:47:33;;;;;;;;;2.67;2.67;;;;;20.72;100.00;102107.34;5110858;27;45358;-78
2023/09/03 02:49:58;;;;;;;;;4.00;2.00;;;;;20.79;100.00;102122.09;5108718;27;55436;-78
2023/09/03 02:52:23;;;;;;;;;3.00;3.00;;;;;20.81;100.00;102121.13;5120503;27;45362;-77
2023/09/03 02:54:49;;;;;;;;;2.00;2.00;;;;;20.84;100.00;102127.16;5114265;27;45331;-78
2023/09/03 02:57:14;;;;;;;;;3.00;3.00;;;;;20.84;100.00;102129.84;5117025;27;45402;-78
2023/09/03 02:59:43;;;;;;;;;3.33;3.33;;;;;20.78;100.00;102123.06;5119061;27;45329;-78
2023/09/03 03:02:09;;;;;;;;;4.67;3.00;;;;;20.77;100.00;102132.09;5121487;27;45331;-77
2023/09/03 03:04:34;;;;;;;;;2.00;2.00;;;;;20.87;100.00;102137.72;5112867;27;45379;-77
2023/09/03 03:06:59;;;;;;;;;2.00;2.00;;;;;20.88;100.00;102144.78;5111000;27;45244;-78
2023/09/03 03:09:25;;;;;;;;;2.33;2.00;;;;;20.86;100.00;102141.34;5110048;27;45324;-77
2023/09/03 03:11:50;;;;;;;;;2.00;2.00;;;;;20.89;100.00;102140.28;5107989;27;45342;-78
2023/09/03 03:14:15;;;;;;;;;2.00;2.00;;;;;20.81;100.00;102132.72;5115523;27;51790;-78
2023/09/03 03:16:41;;;;;;;;;3.33;2.33;;;;;20.86;100.00;102146.75;5122229;27;50908;-78
2023/09/03 03:19:06;;;;;;;;;2.00;2.00;;;;;20.79;100.00;102135.53;5113907;27;47662;-78
2023/09/03 03:21:31;;;;;;;;;2.67;2.67;;;;;20.82;100.00;102139.84;5119493;27;45891;-78
2023/09/03 03:23:57;;;;;;;;;2.00;1.00;;;;;20.71;100.00;102126.28;5120448;27;45299;-78
2023/09/03 03:26:22;;;;;;;;;3.67;3.00;;;;;20.79;100.00;102129.28;5118572;27;45576;-77
2023/09/03 03:28:49;;;;;;;;;2.00;2.00;;;;;20.65;100.00;102119.47;5111949;27;45803;-78
2023/09/03 03:31:16;;;;;;;;;3.00;3.00;;;;;20.75;100.00;102138.53;5115296;27;45412;-78
2023/09/03 03:33:43;;;;;;;;;3.33;3.00;;;;;20.69;100.00;102134.44;5110540;27;45478;-77
2023/09/03 03:36:12;;;;;;;;;2.67;2.00;;;;;20.68;100.00;102143.47;5110955;27;45495;-78
2023/09/03 03:38:37;;;;;;;;;3.00;2.00;;;;;20.66;100.00;102141.84;5120718;27;46300;-78
2023/09/03 03:41:07;;;;;;;;;2.00;2.00;;;;;20.61;100.00;102152.94;5104765;27;45456;-78
2023/09/03 03:43:32;;;;;;;;;4.00;3.00;;;;;20.58;100.00;102157.66;5117354;27;45352;-78
2023/09/03 03:45:57;;;;;;;;;1.00;1.00;;;;;20.40;100.00;102127.50;5107862;27;49022;-78
2023/09/03 03:48:23;;;;;;;;;1.33;1.33;;;;;20.51;100.00;102154.53;5101709;27;46116;-78
2023/09/03 03:50:53;;;;;;;;;3.00;3.00;;;;;20.35;100.00;102139.53;5106393;27;54321;-78
2023/09/03 03:53:19;;;;;;;;;2.00;2.00;;;;;20.37;100.00;102148.34;5114486;27;45570;-78
2023/09/03 03:55:44;;;;;;;;;3.00;3.00;;;;;20.40;100.00;102161.56;5105438;27;45398;-78
2023/09/03 03:58:09;;;;;;;;;3.00;3.00;;;;;20.27;100.00;102148.09;5118474;27;50430;-78
2023/09/03 04:00:35;;;;;;;;;2.00;2.00;;;;;20.32;100.00;102162.06;5114929;27;45349;-77
2023/09/03 04:03:00;;;;;;;;;1.00;1.00;;;;;20.34;100.00;102170.03;5110434;27;45319;-76
2023/09/03 04:05:25;;;;;;;;;4.00;2.00;;;;;20.31;100.00;102168.44;5106639;27;54878;-78
2023/09/03 04:07:52;;;;;;;;;2.00;2.00;;;;;20.20;100.00;102160.16;5113710;27;45501;-78
2023/09/03 04:10:17;;;;;;;;;3.00;3.00;;;;;20.21;100.00;102170.81;5113588;27;45438;-77
2023/09/03 04:12:43;;;;;;;;;2.67;2.67;;;;;20.23;100.00;102179.63;5109391;27;45304;-77
2023/09/03 04:15:08;;;;;;;;;3.33;2.33;;;;;20.17;100.00;102173.81;5107660;27;45583;-77
2023/09/03 04:17:33;;;;;;;;;1.67;1.00;;;;;20.22;100.00;102177.06;5119953;27;46522;-78
2023/09/03 04:19:59;;;;;;;;;3.67;3.00;;;;;20.19;100.00;102183.47;5112939;27;45460;-78
2023/09/03 04:22:24;;;;;;;;;3.00;3.00;;;;;20.05;100.00;102175.47;5101569;27;45698;-78
2023/09/03 04:24:49;;;;;;;;;6.00;4.33;;;;;20.16;100.00;102189.06;5109707;27;45234;-78
2023/09/03 04:27:15;;;;;;;;;2.00;2.00;;;;;20.10;100.00;102181.41;5119552;27;45455;-78
2023/09/03 04:29:40;;;;;;;;;3.00;3.00;;;;;20.16;100.00;102194.44;5106866;27;45258;-78
2023/09/03 04:32:06;;;;;;;;;5.00;4.00;;;;;20.11;100.00;102182.28;5101601;27;45448;-77
2023/09/03 04:34:31;;;;;;;;;4.00;4.00;;;;;20.19;100.00;102193.34;5108918;27;45458;-77
2023/09/03 04:36:56;;;;;;;;;4.00;4.00;;;;;20.19;100.00;102201.41;5109973;27;45477;-78
2023/09/03 04:39:22;;;;;;;;;4.67;3.33;;;;;20.18;100.00;102197.91;5107468;27;47440;-77
2023/09/03 04:41:47;;;;;;;;;4.33;4.33;;;;;20.08;100.00;102183.34;5117191;27;45551;-78
2023/09/03 04:44:12;;;;;;;;;2.33;2.33;;;;;20.04;100.00;102181.81;5112733;27;45786;-77
2023/09/03 04:46:38;;;;;;;;;4.00;4.00;;;;;20.13;100.00;102205.38;5109380;27;47862;-77
2023/09/03 04:49:03;;;;;;;;;4.00;4.00;;;;;20.05;100.00;102198.78;5111091;27;45342;-78
2023/09/03 04:51:29;;;;;;;;;4.00;4.00;;;;;20.08;100.00;102210.19;5118074;27;45459;-78
2023/09/03 04:53:54;;;;;;;;;6.00;4.00;;;;;19.94;100.00;102187.84;5106796;27;45346;-77
2023/09/03 04:56:19;;;;;;;;;5.00;3.67;;;;;20.05;100.00;102209.53;5113584;27;59278;-77
2023/09/03 04:58:45;;;;;;;;;4.00;3.67;;;;;19.95;100.00;102195.84;5114160;27;45275;-78
2023/09/03 05:01:17;;;;;;;;;5.00;3.00;;;;;20.06;100.00;102208.53;5105959;27;45755;-78
2023/09/03 05:03:42;;;;;;;;;4.00;3.67;;;;;20.05;100.00;102222.97;5131651;27;45468;-77
2023/09/03 05:06:15;;;;;;;;;6.00;6.00;;;;;20.04;100.00;102224.78;5110552;27;45514;-78
2023/09/03 05:08:41;;;;;;;;;4.67;4.67;;;;;20.06;100.00;102230.03;5111236;27;45335;-78
2023/09/03 05:11:12;;;;;;;;;6.00;4.00;;;;;20.00;100.00;102217.00;5104844;27;45567;-78
2023/09/03 05:13:39;;;;;;;;;6.33;5.33;;;;;19.97;100.00;102215.38;5102895;27;45478;-77
2023/09/03 05:16:04;;;;;;;;;5.00;4.67;;;;;20.04;100.00;102216.72;5113477;27;45562;-78
2023/09/03 05:18:30;;;;;;;;;5.00;4.33;;;;;19.95;100.00;102216.44;5100865;27;45425;-77
2023/09/03 05:20:55;;;;;;;;;4.00;3.67;;;;;19.98;100.00;102224.31;5106115;27;45542;-77
2023/09/03 05:23:21;;;;;;;;;6.33;5.33;;;;;20.04;100.00;102232.84;5107025;27;45232;-77
2023/09/03 05:25:46;;;;;;;;;7.00;5.33;;;;;20.04;100.00;102229.28;5113535;27;47556;-78
2023/09/03 05:28:13;;;;;;;;;5.67;4.00;;;;;20.06;100.00;102232.72;5107525;27;45421;-77
2023/09/03 05:30:38;;;;;;;;;7.00;5.00;;;;;20.04;100.00;102231.97;5112685;27;45390;-77
2023/09/03 05:33:04;;;;;;;;;7.67;6.00;;;;;20.05;100.00;102229.19;5117030;27;45361;-78
2023/09/03 05:35:29;;;;;;;;;7.00;5.67;;;;;19.96;100.00;102218.19;5115539;27;46109;-78
2023/09/03 05:37:54;;;;;;;;;5.33;5.33;;;;;20.07;100.00;102232.63;5103891;27;45479;-77
2023/09/03 05:40:20;;;;;;;;;4.67;3.00;;;;;19.88;100.00;102207.06;5110028;27;45422;-78
2023/09/03 05:42:45;;;;;;;;;4.67;4.33;;;;;20.09;100.00;102252.19;5103468;27;45543;-77
2023/09/03 05:45:10;;;;;;;;;2.33;2.33;;;;;20.10;100.00;102253.94;5122401;27;46201;-78
2023/09/03 05:47:36;;;;;;;;;6.00;4.00;;;;;19.99;100.00;102234.94;5110775;27;45351;-78
2023/09/03 05:50:01;;;;;;;;;5.67;4.00;;;;;20.10;100.00;102250.38;5106281;27;45589;-77
2023/09/03 05:52:26;;;;;;;;;5.00;5.00;;;;;20.14;100.00;102263.53;5105236;27;45363;-78
2023/09/03 05:54:52;;;;;;;;;5.67;5.00;;;;;20.17;100.00;102260.63;5118967;27;58928;-78
2023/09/03 05:57:18;;;;;;;;;4.33;4.33;;;;;20.20;100.00;102255.06;5106891;27;45224;-78
2023/09/03 05:59:48;;;;;;;;;5.00;5.00;;;;;20.11;100.00;102241.38;5104318;27;45388;-77
2023/09/03 06:02:14;;;;;;;;;9.00;6.33;;;;;20.15;100.00;102250.97;5107638;27;45337;-78
2023/09/03 06:04:39;;;;;;;;;4.00;4.00;;;;;20.25;100.00;102269.06;5110130;27;45483;-77
2023/09/03 06:07:06;;;;;;;;;8.00;6.67;;;;;20.18;100.00;102246.25;5100996;27;45468;-78
2023/09/03 06:09:32;;;;;;;;;5.33;3.67;;;;;20.26;100.00;102249.31;5109787;27;45362;-77
2023/09/03 06:11:57;;;;;;;;;6.00;6.00;;;;;20.36;100.00;102256.78;5111557;27;47214;-77
2023/09/03 06:14:22;;;;;;;;;3.33;3.33;;;;;20.20;100.00;102230.88;5108019;27;45256;-77
2023/09/03 06:16:47;;;;;;;;;5.00;5.00;;;;;20.34;100.00;102256.03;5109890;27;45430;-78
2023/09/03 06:19:13;;;;;;;;;1.67;1.67;;;;;20.44;100.00;102282.22;5114357;27;45228;-77
2023/09/03 06:21:38;;;;;;;;;5.00;4.00;;;;;20.45;100.00;102283.09;5113749;27;47261;-78
2023/09/03 06:24:04;;;;;;;;;4.00;4.00;;;;;20.46;100.00;102282.09;5112950;27;46442;-78
2023/09/03 06:26:29;;;;;;;;;3.00;3.00;;;;;20.51;100.00;102291.63;5112092;27;45474;-77
2023/09/03 06:28:54;;;;;;;;;2.33;2.33;;;;;20.42;100.00;102278.75;5110189;27;45355;-77
2023/09/03 06:31:20;;;;;;;;;3.33;3.33;;;;;20.56;100.00;102302.06;5111858;27;46577;-78
2023/09/03 06:33:45;;;;;;;;;5.67;5.67;;;;;20.57;100.00;102301.09;5114784;27;55190;-78
2023/09/03 06:36:11;;;;;;;;;7.33;5.33;;;;;20.61;100.00;102300.81;5108646;27;46276;-77
2023/09/03 06:38:39;;;;;;;;;3.67;3.67;;;;;20.66;100.00;102317.50;5116428;27;45376;-77
2023/09/03 06:41:04;;;;;;;;;3.00;2.00;;;;;20.64;100.00;102308.66;5115593;27;45848;-77
2023/09/03 06:43:30;;;;;;;;;2.67;2.67;;;;;20.76;100.00;102312.38;5103018;27;46263;-78
2023/09/03 06:45:55;;;;;;;;;5.00;5.00;;;;;20.71;100.00;102301.06;5115021;27;45385;-77
2023/09/03 06:48:20;;;;;;;;;7.00;6.33;;;;;20.71;100.00;102284.94;5113381;27;45488;-78
2023/09/03 06:50:45;;;;;;;;;3.67;3.00;;;;;20.84;100.00;102299.28;5119412;27;53344;-78
2023/09/03 06:53:11;;;;;;;;;4.00;4.00;;;;;20.91;100.00;102289.81;5123733;27;47084;-78
2023/09/03 06:55:36;;;;;;;;;3.33;3.33;;;;;20.88;100.00;102286.47;5124267;27;45312;-77
2023/09/03 06:58:02;;;;;;;;;4.67;4.67;;;;;21.06;100.00;102307.66;5123673;27;45403;-78
2023/09/03 07:00:27;;;;;;;;;5.33;5.00;;;;;21.14;100.00;102308.00;5113659;27;45466;-78
2023/09/03 07:02:52;;;;;;;;;4.67;4.67;;;;;21.03;100.00;102280.09;5115838;27;46294;-78
2023/09/03 07:05:18;;;;;;;;;4.67;3.00;;;;;21.26;100.00;102311.72;5111537;27;51399;-77
2023/09/03 07:07:43;;;;;;;;;4.00;4.00;;;;;21.36;100.00;102331.66;5109530;27;45308;-78
2023/09/03 07:10:09;;;;;;;;;5.00;3.00;;;;;21.40;100.00;102317.00;5108144;27;45461;-78
2023/09/03 07:12:34;;;;;;;;;3.33;3.33;;;;;21.44;100.00;102321.22;5108407;27;46005;-77
2023/09/03 07:14:59;;;;;;;;;4.33;3.33;;;;;21.52;100.00;102310.78;5114017;27;46542;-77
2023/09/03 07:17:24;;;;;;;;;5.00;4.00;;;;;21.44;100.00;102296.13;5121119;27;45456;-78
2023/09/03 07:19:53;;;;;;;;;3.33;3.33;;;;;21.62;100.00;102316.41;5109340;27;53203;-78
2023/09/03 07:22:18;;;;;;;;;4.00;3.00;;;;;21.61;100.00;102318.22;5106273;27;46228;-78
2023/09/03 07:24:44;;;;;;;;;4.33;3.00;;;;;21.74;100.00;102329.88;5114947;27;45311;-78
2023/09/03 07:27:09;;;;;;;;;4.00;4.00;;;;;21.85;100.00;102341.72;5111727;27;45538;-78
2023/09/03 07:29:34;;;;;;;;;6.00;4.00;;;;;21.87;100.00;102321.78;5112508;27;45450;-78
2023/09/03 07:32:00;;;;;;;;;5.00;5.00;;;;;22.03;100.00;102348.53;5105930;27;46191;-78
2023/09/03 07:34:25;;;;;;;;;3.00;3.00;;;;;22.05;100.00;102328.63;5118831;27;45406;-78
2023/09/03 07:36:50;;;;;;;;;5.00;4.00;;;;;22.18;100.00;102325.91;5108007;27;45607;-78
2023/09/03 07:39:16;;;;;;;;;4.00;4.00;;;;;22.28;100.00;102329.66;5104124;27;45436;-77
2023/09/03 07:41:41;;;;;;;;;3.00;2.33;;;;;22.35;100.00;102320.13;5101758;27;45409;-78
2023/09/03 07:44:08;;;;;;;;;4.33;3.00;;;;;22.40;100.00;102309.91;5116492;27;45364;-76
2023/09/03 07:46:34;;;;;;;;;4.00;4.00;;;;;22.40;100.00;102295.56;5110449;27;45278;-77
2023/09/03 07:48:59;;;;;;;;;4.00;4.00;;;;;22.61;100.00;102310.16;5113757;27;45293;-76
2023/09/03 07:51:24;;;;;;;;;3.00;3.00;;;;;22.64;100.00;102291.06;5106581;27;46805;-77
2023/09/03 07:53:50;;;;;;;;;3.00;3.00;;;;;22.70;100.00;102287.94;5108220;27;45986;-77
2023/09/03 07:56:16;;;;;;;;;4.33;3.00;;;;;22.91;100.00;102307.91;5108286;27;45237;-77
2023/09/03 07:58:43;;;;;;;;;2.00;2.00;;;;;22.98;98.94;102303.78;5115837;27;45330;-77
2023/09/03 08:01:12;;;;;;;;;4.67;3.00;;;;;23.11;98.63;102290.19;5108627;27;45455;-77
2023/09/03 08:03:38;;;;;;;;;5.33;3.33;;;;;23.28;98.44;102296.03;5119883;27;45410;-77
2023/09/03 08:06:05;;;;;;;;;2.00;2.00;;;;;23.40;96.13;102293.34;5107676;27;45417;-77
2023/09/03 08:08:30;;;;;;;;;3.00;3.00;;;;;23.49;96.53;102287.28;5114039;27;45336;-77
2023/09/03 08:10:56;;;;;;;;;3.00;3.00;;;;;23.62;93.61;102310.53;5114458;27;46446;-77
2023/09/03 08:13:22;;;;;;;;;3.33;3.33;;;;;23.72;95.86;102303.41;5102829;27;45383;-76
2023/09/03 08:15:48;;;;;;;;;3.00;3.00;;;;;23.83;97.03;102297.16;5121181;27;45393;-77
2023/09/03 08:18:14;;;;;;;;;1.33;1.33;;;;;23.96;90.36;102291.63;5116003;27;45498;-76
2023/09/03 08:20:41;;;;;;;;;2.67;2.00;;;;;24.15;89.62;102297.31;5112023;27;48105;-76
2023/09/03 08:23:06;;;;;;;;;3.67;3.00;;;;;24.27;88.26;102293.63;5118923;27;45295;-77
2023/09/03 08:25:31;;;;;;;;;3.00;3.00;;;;;24.09;89.59;102255.38;5104490;27;45408;-77
2023/09/03 08:27:57;;;;;;;;;3.67;3.00;;;;;24.42;87.64;102288.81;5103231;27;45580;-78
2023/09/03 08:30:22;;;;;;;;;2.00;2.00;;;;;24.62;86.96;102291.59;5102357;27;45471;-77
2023/09/03 08:32:47;;;;;;;;;3.00;3.00;;;;;24.68;86.15;102284.81;5118426;27;45272;-77
2023/09/03 08:35:13;;;;;;;;;4.00;4.00;;;;;24.76;85.65;102263.41;5120274;27;45479;-77
2023/09/03 08:37:38;;;;;;;;;2.00;2.00;;;;;25.03;86.30;102290.03;5122547;27;45453;-77
2023/09/03 08:40:04;;;;;;;;;4.00;2.00;;;;;25.16;84.55;102282.59;5126422;27;53736;-78
2023/09/03 08:42:31;;;;;;;;;2.00;2.00;;;;;25.35;83.27;102297.13;5104698;27;45348;-78
2023/09/03 08:45:03;;;;;;;;;3.67;3.00;;;;;25.42;83.06;102282.03;5120447;27;45294;-77
2023/09/03 08:47:28;;;;;;;;;3.00;3.00;;;;;25.67;80.40;102296.22;5123164;27;45302;-78
2023/09/03 08:49:54;;;;;;;;;3.00;3.00;;;;;25.86;81.85;102301.75;5114760;27;47173;-77
2023/09/03 08:52:20;;;;;;;;;2.00;2.00;;;;;25.99;81.01;102298.81;5113971;27;45468;-78
2023/09/03 08:54:46;;;;;;;;;2.67;2.67;;;;;26.19;77.14;102304.22;5116769;27;45445;-77
2023/09/03 08:57:12;;;;;;;;;4.67;3.00;;;;;26.28;78.99;102297.97;5116983;27;45461;-78
2023/09/03 08:59:38;;;;;;;;;2.00;2.00;;;;;26.42;77.78;102300.31;5120133;27;48184;-78
2023/09/03 09:02:09;;;;;;;;;2.00;2.00;;;;;26.62;76.10;102305.78;5103662;27;45540;-78
2023/09/03 09:04:34;;;;;;;;;4.00;2.33;;;;;26.70;75.31;102298.63;5108822;27;45546;-78
2023/09/03 09:07:01;;;;;;;;;2.00;2.00;;;;;26.86;70.72;102290.81;5103396;27;45404;-78
2023/09/03 09:09:29;;;;;;;;;2.00;2.00;;;;;26.93;73.58;102301.97;5113468;27;47259;-78
2023/09/03 09:12:10;;;;;;;;;1.00;1.00;;;;;27.00;70.92;102300.41;5118850;27;45422;-78
2023/09/03 09:14:48;;;;;;;;;2.33;2.33;;;;;27.05;71.51;102292.72;5113582;27;45411;-78
2023/09/03 09:17:14;;;;;;;;;2.00;2.00;;;;;27.16;67.74;102308.84;5115182;27;45355;-78
2023/09/03 09:19:39;;;;;;;;;3.00;1.33;;;;;27.22;69.62;102311.03;5124853;27;45579;-77
2023/09/03 09:22:05;;;;;;;;;2.00;2.00;;;;;27.30;70.07;102300.28;5115489;27;45291;-78
2023/09/03 09:24:31;;;;;;;;;3.00;3.00;;;;;27.36;69.56;102299.69;5109418;27;45640;-77
2023/09/03 09:27:16;;;;;;;;;4.33;2.00;;;;;27.41;69.35;102299.25;5111046;27;45386;-78
2023/09/03 09:29:41;;;;;;;;;2.00;2.00;;;;;27.45;69.76;102299.88;5117906;27;47999;-77
2023/09/03 09:32:22;;;;;;;;;2.67;2.00;;;;;27.57;68.64;102304.13;5103466;27;45398;-77
2023/09/03 09:34:47;;;;;;;;;2.33;2.00;;;;;27.59;66.73;102307.53;5109127;27;45395;-77
2023/09/03 09:37:13;;;;;;;;;3.33;3.00;;;;;27.65;65.71;102309.69;5116276;27;45434;-78
2023/09/03 09:39:46;;;;;;;;;3.00;1.33;;;;;27.68;67.99;102314.84;5112266;27;46495;-77
2023/09/03 09:42:13;;;;;;;;;1.00;1.00;;;;;27.81;67.32;102326.25;5111241;27;45679;-78
2023/09/03 09:44:50;;;;;;;;;3.00;3.00;;;;;27.89;66.24;102326.38;5108694;27;45401;-78
2023/09/03 09:47:17;;;;;;;;;2.00;2.00;;;;;27.92;68.81;102316.06;5107700;27;45551;-78
2023/09/03 09:49:43;;;;;;;;;2.00;2.00;;;;;28.15;67.00;102323.88;5102392;27;46039;-78
2023/09/03 09:52:10;;;;;;;;;1.00;1.00;;;;;28.22;64.85;102327.72;5099872;27;45382;-77
2023/09/03 09:54:40;;;;;;;;;2.00;2.00;;;;;28.28;65.81;102317.09;5103359;27;45348;-78
2023/09/03 09:57:16;;;;;;;;;3.33;2.00;;;;;28.34;65.23;102302.88;5114947;27;45491;-78
2023/09/03 09:59:43;;;;;;;;;3.00;3.00;;;;;28.51;63.95;102313.94;5108926;27;46705;-78
2023/09/03 10:02:16;;;;;;;;;3.00;3.00;;;;;28.59;63.93;102314.06;5112963;27;45368;-78
2023/09/03 10:04:50;;;;;;;;;1.33;1.33;;;;;28.63;64.16;102305.41;5100521;27;45484;-78
2023/09/03 10:07:16;;;;;;;;;3.00;3.00;;;;;28.74;63.27;102296.19;5103027;27;45455;-77
2023/09/03 10:09:44;;;;;;;;;3.67;3.67;;;;;28.74;63.65;102298.94;5111896;27;48159;-78
2023/09/03 10:12:10;;;;;;;;;3.00;3.00;;;;;28.77;63.40;102296.75;5112500;27;45487;-77
2023/09/03 10:14:36;;;;;;;;;3.33;3.33;;;;;28.89;62.59;102300.97;5103562;27;45565;-77
2023/09/03 10:17:04;;;;;;;;;3.00;3.00;;;;;29.00;64.13;102302.59;5115195;27;45292;-78
2023/09/03 10:19:41;;;;;;;;;4.67;3.00;;;;;29.02;59.79;102297.00;5108689;27;45384;-78
2023/09/03 10:22:11;;;;;;;;;3.33;3.33;;;;;29.13;62.52;102303.06;5115338;27;45311;-78
2023/09/03 10:24:38;;;;;;;;;3.33;3.33;;;;;29.10;60.91;102283.44;5111109;27;45301;-78
2023/09/03 10:27:06;;;;;;;;;3.67;3.00;;;;;29.22;61.15;102301.28;5117871;27;45403;-78
2023/09/03 10:29:35;;;;;;;;;4.00;4.00;;;;;29.20;60.94;102293.25;5115884;27;45299;-77
2023/09/03 10:32:01;;;;;;;;;4.00;3.00;;;;;29.23;63.57;102290.22;5111044;27;45302;-78
2023/09/03 10:34:29;;;;;;;;;4.33;4.00;;;;;29.12;61.11;102290.47;5105461;27;45472;-78
2023/09/03 10:37:10;;;;;;;;;4.00;4.00;;;;;29.16;62.26;102307.34;5102624;27;45485;-78
2023/09/03 10:39:37;;;;;;;;;6.00;3.00;;;;;29.08;61.20;102291.78;5099795;27;46940;-77
2023/09/03 10:42:15;;;;;;;;;4.67;4.67;;;;;29.18;62.93;102305.31;5117504;27;46243;-77
2023/09/03 10:44:44;;;;;;;;;3.33;3.33;;;;;29.11;60.75;102288.75;5107633;27;45477;-78
2023/09/03 10:47:11;;;;;;;;;3.67;3.67;;;;;29.19;59.11;102310.59;5114465;27;45565;-78
2023/09/03 10:49:41;;;;;;;;;1.67;1.67;;;;;29.19;60.74;102305.16;5110736;27;45419;-78
2023/09/03 10:52:30;;;;;;;;;3.67;3.00;;;;;29.26;60.64;102300.81;5104141;27;45377;-77
2023/09/03 10:55:15;;;;;;;;;3.00;3.00;;;;;29.27;59.84;102297.09;5117996;27;45312;-77
2023/09/03 10:57:43;;;;;;;;;4.33;2.67;;;;;29.29;59.61;102305.09;5122782;27;45293;-77
2023/09/03 11:00:13;;;;;;;;;4.00;4.00;;;;;29.23;59.72;102297.53;5126508;27;46373;-77
2023/09/03 11:02:39;;;;;;;;;5.00;5.00;;;;;29.18;60.36;102294.44;5120085;27;45276;-77
2023/09/03 11:05:21;;;;;;;;;3.00;3.00;;;;;29.15;59.55;102306.50;5109469;27;45409;-77
2023/09/03 11:07:49;;;;;;;;;3.67;3.67;;;;;29.23;60.28;102305.69;5122614;27;45530;-77
2023/09/03 11:10:20;;;;;;;;;4.67;4.67;;;;;29.26;60.27;102305.41;5118878;27;45565;-77
2023/09/03 11:12:47;;;;;;;;;5.00;5.00;;;;;29.28;58.70;102300.69;5119402;27;44783;-78
2023/09/03 11:15:13;;;;;;;;;4.33;4.33;;;;;29.34;58.38;102294.59;5110364;27;45420;-77
2023/09/03 11:17:41;;;;;;;;;4.67;3.00;;;;;29.33;58.95;102281.97;5111045;27;45407;-77
2023/09/03 11:20:08;;;;;;;;;2.33;2.33;;;;;29.36;58.76;102295.28;5110031;27;46757;-77